sensor_id;sensor_type;location;lat;lon;timestamp;temperature;humidity
74513;DHT22;62992;52.052;8.550;2022-12-07T00:00:18;4.30;99.90
74513;DHT22;62992;52.052;8.550;2022-12-07T00:03:03;4.30;99.90
74513;DHT22;62992;52.052;8.550;2022-12-07T00:05:47;4.30;99.90
74513;DHT22;62992;52.052;8.550;2022-12-07T00:08:32;4.30;99.90
74513;DHT22;62992;52.052;8.550;2022-12-07T00:11:19;4.30;99.90
74513;DHT22;62992;52.052;8.550;2022-12-07T00:14:06;4.30;99.90
74513;DHT22;62992;52.052;8.550;2022-12-07T00:16:51;4.30;99.90
74513;DHT22;62992;52.052;8.550;2022-12-07T00:19:35;4.40;99.90
74513;DHT22;62992;52.052;8.550;2022-12-07T00:22:19;4.40;99.90
74513;DHT22;62992;52.052;8.550;2022-12-07T00:25:04;4.40;99.90
74513;DHT22;62992;52.052;8.550;2022-12-07T00:27:48;4.40;99.90
74513;DHT22;62992;52.052;8.550;2022-12-07T00:30:32;4.30;99.90
74513;DHT22;62992;52.052;8.550;2022-12-07T00:33:16;4.30;99.90
74513;DHT22;62992;52.052;8.550;2022-12-07T00:36:01;4.40;99.90
74513;DHT22;62992;52.052;8.550;2022-12-07T00:38:46;4.40;99.90
74513;DHT22;62992;52.052;8.550;2022-12-07T00:41:30;4.30;99.90
74513;DHT22;62992;52.052;8.550;2022-12-07T00:44:15;4.40;99.90
74513;DHT22;62992;52.052;8.550;2022-12-07T00:46:59;4.40;99.90
74513;DHT22;62992;52.052;8.550;2022-12-07T00:49:43;4.40;99.90
74513;DHT22;62992;52.052;8.550;2022-12-07T00:52:27;4.30;99.90
74513;DHT22;62992;52.052;8.550;2022-12-07T00:55:11;4.30;99.90
74513;DHT22;62992;52.052;8.550;2022-12-07T00:57:55;4.30;99.90
74513;DHT22;62992;52.052;8.550;2022-12-07T01:00:40;4.40;99.90
74513;DHT22;62992;52.052;8.550;2022-12-07T01:03:24;4.30;99.90
74513;DHT22;62992;52.052;8.550;2022-12-07T01:06:09;4.30;99.90
74513;DHT22;62992;52.052;8.550;2022-12-07T01:08:53;4.40;99.90
74513;DHT22;62992;52.052;8.550;2022-12-07T01:11:38;4.40;99.90
74513;DHT22;62992;52.052;8.550;2022-12-07T01:14:22;4.30;99.90
74513;DHT22;62992;52.052;8.550;2022-12-07T01:17:06;4.30;99.90
74513;DHT22;62992;52.052;8.550;2022-12-07T01:19:50;4.30;99.90
74513;DHT22;62992;52.052;8.550;2022-12-07T01:22:37;4.40;99.90
74513;DHT22;62992;52.052;8.550;2022-12-07T01:25:22;4.40;99.90
74513;DHT22;62992;52.052;8.550;2022-12-07T01:28:06;4.40;99.90
74513;DHT22;62992;52.052;8.550;2022-12-07T01:31:04;4.40;99.90
74513;DHT22;62992;52.052;8.550;2022-12-07T01:33:52;4.40;99.90
74513;DHT22;62992;52.052;8.550;2022-12-07T01:36:37;4.40;99.90
74513;DHT22;62992;52.052;8.550;2022-12-07T01:39:21;4.30;99.90
74513;DHT22;62992;52.052;8.550;2022-12-07T01:42:07;4.30;99.90
74513;DHT22;62992;52.052;8.550;2022-12-07T01:48:01;4.20;99.90
74513;DHT22;62992;52.052;8.550;2022-12-07T01:50:48;4.20;99.90
74513;DHT22;62992;52.052;8.550;2022-12-07T01:53:34;4.10;99.90
74513;DHT22;62992;52.052;8.550;2022-12-07T01:56:24;4.10;99.90
74513;DHT22;62992;52.052;8.550;2022-12-07T01:59:08;4.10;99.90
74513;DHT22;62992;52.052;8.550;2022-12-07T02:01:54;4.10;99.90
74513;DHT22;62992;52.052;8.550;2022-12-07T02:04:39;4.10;99.90
74513;DHT22;62992;52.052;8.550;2022-12-07T02:07:24;4.10;99.90
74513;DHT22;62992;52.052;8.550;2022-12-07T02:13:21;4.00;99.90
74513;DHT22;62992;52.052;8.550;2022-12-07T02:22:18;3.80;99.90
74513;DHT22;62992;52.052;8.550;2022-12-07T02:28:26;3.70;99.90
74513;DHT22;62992;52.052;8.550;2022-12-07T02:31:19;3.60;99.90
74513;DHT22;62992;52.052;8.550;2022-12-07T02:34:09;3.60;99.90
74513;DHT22;62992;52.052;8.550;2022-12-07T02:37:01;3.50;99.90
74513;DHT22;62992;52.052;8.550;2022-12-07T02:39:53;3.50;99.90
74513;DHT22;62992;52.052;8.550;2022-12-07T02:42:53;3.50;99.90
74513;DHT22;62992;52.052;8.550;2022-12-07T02:45:40;3.60;99.90
74513;DHT22;62992;52.052;8.550;2022-12-07T02:48:26;3.60;99.90
74513;DHT22;62992;52.052;8.550;2022-12-07T02:51:11;3.50;99.90
74513;DHT22;62992;52.052;8.550;2022-12-07T02:53:55;3.50;99.90
74513;DHT22;62992;52.052;8.550;2022-12-07T02:56:43;3.50;99.90
74513;DHT22;62992;52.052;8.550;2022-12-07T03:02:50;3.40;99.90
74513;DHT22;62992;52.052;8.550;2022-12-07T03:09:27;3.40;99.90
74513;DHT22;62992;52.052;8.550;2022-12-07T03:11:50;3.40;99.90
74513;DHT22;62992;52.052;8.550;2022-12-07T03:14:55;3.30;99.90
74513;DHT22;62992;52.052;8.550;2022-12-07T03:17:42;3.30;99.90
74513;DHT22;62992;52.052;8.550;2022-12-07T03:20:29;3.30;99.90
74513;DHT22;62992;52.052;8.550;2022-12-07T03:23:17;3.30;99.90
74513;DHT22;62992;52.052;8.550;2022-12-07T03:26:04;3.30;99.90
74513;DHT22;62992;52.052;8.550;2022-12-07T03:28:52;3.30;99.90
74513;DHT22;62992;52.052;8.550;2022-12-07T03:31:42;3.30;99.90
74513;DHT22;62992;52.052;8.550;2022-12-07T03:34:36;3.30;99.90
74513;DHT22;62992;52.052;8.550;2022-12-07T03:37:34;3.30;99.90
74513;DHT22;62992;52.052;8.550;2022-12-07T03:40:39;3.30;99.90
74513;DHT22;62992;52.052;8.550;2022-12-07T03:43:24;3.30;99.90
74513;DHT22;62992;52.052;8.550;2022-12-07T03:49:37;3.30;99.90
74513;DHT22;62992;52.052;8.550;2022-12-07T03:55:30;3.30;99.90
74513;DHT22;62992;52.052;8.550;2022-12-07T03:58:20;3.30;99.90
74513;DHT22;62992;52.052;8.550;2022-12-07T04:01:05;3.30;99.90
74513;DHT22;62992;52.052;8.550;2022-12-07T04:03:49;3.40;99.90
74513;DHT22;62992;52.052;8.550;2022-12-07T04:06:33;3.40;99.90
74513;DHT22;62992;52.052;8.550;2022-12-07T04:09:18;3.30;99.90
74513;DHT22;62992;52.052;8.550;2022-12-07T04:12:02;3.40;99.90
74513;DHT22;62992;52.052;8.550;2022-12-07T04:14:46;3.40;99.90
74513;DHT22;62992;52.052;8.550;2022-12-07T04:17:30;3.30;99.90
74513;DHT22;62992;52.052;8.550;2022-12-07T04:20:14;3.30;99.90
74513;DHT22;62992;52.052;8.550;2022-12-07T04:22:58;3.40;99.90
74513;DHT22;62992;52.052;8.550;2022-12-07T04:25:42;3.50;99.90
74513;DHT22;62992;52.052;8.550;2022-12-07T04:28:26;3.40;99.90
74513;DHT22;62992;52.052;8.550;2022-12-07T04:31:10;3.40;99.90
74513;DHT22;62992;52.052;8.550;2022-12-07T04:33:54;3.40;99.90
74513;DHT22;62992;52.052;8.550;2022-12-07T04:36:39;3.40;99.90
74513;DHT22;62992;52.052;8.550;2022-12-07T04:39:33;3.40;99.90
74513;DHT22;62992;52.052;8.550;2022-12-07T04:42:17;3.40;99.90
74513;DHT22;62992;52.052;8.550;2022-12-07T04:45:01;3.30;99.90
74513;DHT22;62992;52.052;8.550;2022-12-07T04:47:46;3.30;99.90
74513;DHT22;62992;52.052;8.550;2022-12-07T04:50:30;3.30;99.90
74513;DHT22;62992;52.052;8.550;2022-12-07T04:53:14;3.30;99.90
74513;DHT22;62992;52.052;8.550;2022-12-07T04:55:58;3.30;99.90
74513;DHT22;62992;52.052;8.550;2022-12-07T04:58:43;3.30;99.90
74513;DHT22;62992;52.052;8.550;2022-12-07T05:01:28;3.30;99.90
74513;DHT22;62992;52.052;8.550;2022-12-07T05:04:12;3.20;99.90
74513;DHT22;62992;52.052;8.550;2022-12-07T05:06:56;3.20;99.90
74513;DHT22;62992;52.052;8.550;2022-12-07T05:09:40;3.30;99.90
74513;DHT22;62992;52.052;8.550;2022-12-07T05:12:25;3.30;99.90
74513;DHT22;62992;52.052;8.550;2022-12-07T05:15:09;3.30;99.90
74513;DHT22;62992;52.052;8.550;2022-12-07T05:17:53;3.40;99.90
74513;DHT22;62992;52.052;8.550;2022-12-07T05:20:38;3.40;99.90
74513;DHT22;62992;52.052;8.550;2022-12-07T05:23:22;3.40;99.90
74513;DHT22;62992;52.052;8.550;2022-12-07T05:26:06;3.50;99.90
74513;DHT22;62992;52.052;8.550;2022-12-07T05:28:52;3.40;99.90
74513;DHT22;62992;52.052;8.550;2022-12-07T05:31:36;3.50;99.90
74513;DHT22;62992;52.052;8.550;2022-12-07T05:34:20;3.50;99.90
74513;DHT22;62992;52.052;8.550;2022-12-07T05:37:04;3.50;99.90
74513;DHT22;62992;52.052;8.550;2022-12-07T05:39:48;3.40;99.90
74513;DHT22;62992;52.052;8.550;2022-12-07T05:42:32;3.40;99.90
74513;DHT22;62992;52.052;8.550;2022-12-07T05:45:16;3.40;99.90
74513;DHT22;62992;52.052;8.550;2022-12-07T05:48:00;3.40;99.90
74513;DHT22;62992;52.052;8.550;2022-12-07T05:50:47;3.40;99.90
74513;DHT22;62992;52.052;8.550;2022-12-07T05:53:32;3.40;99.90
74513;DHT22;62992;52.052;8.550;2022-12-07T05:56:16;3.30;99.90
74513;DHT22;62992;52.052;8.550;2022-12-07T05:59:00;3.30;99.90
74513;DHT22;62992;52.052;8.550;2022-12-07T06:02:06;3.30;99.90
74513;DHT22;62992;52.052;8.550;2022-12-07T06:04:51;3.30;99.90
74513;DHT22;62992;52.052;8.550;2022-12-07T06:07:35;3.30;99.90
74513;DHT22;62992;52.052;8.550;2022-12-07T06:10:19;3.30;99.90
74513;DHT22;62992;52.052;8.550;2022-12-07T06:15:42;3.20;99.90
74513;DHT22;62992;52.052;8.550;2022-12-07T06:18:26;3.20;99.90
74513;DHT22;62992;52.052;8.550;2022-12-07T06:21:10;3.10;99.90
74513;DHT22;62992;52.052;8.550;2022-12-07T06:23:54;3.10;99.90
74513;DHT22;62992;52.052;8.550;2022-12-07T06:26:39;3.00;99.90
74513;DHT22;62992;52.052;8.550;2022-12-07T06:29:24;3.00;99.90
74513;DHT22;62992;52.052;8.550;2022-12-07T06:32:08;3.00;99.90
74513;DHT22;62992;52.052;8.550;2022-12-07T06:34:52;3.00;99.90
74513;DHT22;62992;52.052;8.550;2022-12-07T06:37:36;3.10;99.90
74513;DHT22;62992;52.052;8.550;2022-12-07T06:40:20;3.00;99.90
74513;DHT22;62992;52.052;8.550;2022-12-07T06:43:05;3.00;99.90
74513;DHT22;62992;52.052;8.550;2022-12-07T06:45:49;3.10;99.90
74513;DHT22;62992;52.052;8.550;2022-12-07T06:48:33;3.00;99.90
74513;DHT22;62992;52.052;8.550;2022-12-07T06:51:17;3.00;99.90
74513;DHT22;62992;52.052;8.550;2022-12-07T06:54:01;3.00;99.90
74513;DHT22;62992;52.052;8.550;2022-12-07T06:56:45;2.90;99.90
74513;DHT22;62992;52.052;8.550;2022-12-07T06:59:29;2.90;99.90
74513;DHT22;62992;52.052;8.550;2022-12-07T07:02:13;2.90;99.90
74513;DHT22;62992;52.052;8.550;2022-12-07T07:04:57;2.80;99.90
74513;DHT22;62992;52.052;8.550;2022-12-07T07:07:41;2.80;99.90
74513;DHT22;62992;52.052;8.550;2022-12-07T07:10:25;2.70;99.90
74513;DHT22;62992;52.052;8.550;2022-12-07T07:13:09;2.70;99.90
74513;DHT22;62992;52.052;8.550;2022-12-07T07:15:54;2.70;99.90
74513;DHT22;62992;52.052;8.550;2022-12-07T07:18:38;2.70;99.90
74513;DHT22;62992;52.052;8.550;2022-12-07T07:21:22;2.60;99.90
74513;DHT22;62992;52.052;8.550;2022-12-07T07:24:06;2.60;99.90
74513;DHT22;62992;52.052;8.550;2022-12-07T07:26:51;2.60;99.90
74513;DHT22;62992;52.052;8.550;2022-12-07T07:29:35;2.60;99.90
74513;DHT22;62992;52.052;8.550;2022-12-07T07:32:19;2.60;99.90
74513;DHT22;62992;52.052;8.550;2022-12-07T07:35:04;2.60;99.90
74513;DHT22;62992;52.052;8.550;2022-12-07T07:37:48;2.60;99.90
74513;DHT22;62992;52.052;8.550;2022-12-07T07:40:32;2.60;99.90
74513;DHT22;62992;52.052;8.550;2022-12-07T07:43:17;2.60;99.90
74513;DHT22;62992;52.052;8.550;2022-12-07T07:46:01;2.60;99.90
74513;DHT22;62992;52.052;8.550;2022-12-07T07:48:45;2.60;99.90
74513;DHT22;62992;52.052;8.550;2022-12-07T07:51:29;2.60;99.90
74513;DHT22;62992;52.052;8.550;2022-12-07T07:54:13;2.60;99.90
74513;DHT22;62992;52.052;8.550;2022-12-07T07:56:57;2.60;99.90
74513;DHT22;62992;52.052;8.550;2022-12-07T07:59:41;2.70;99.90
74513;DHT22;62992;52.052;8.550;2022-12-07T08:02:25;2.70;99.90
74513;DHT22;62992;52.052;8.550;2022-12-07T08:05:11;2.80;99.90
74513;DHT22;62992;52.052;8.550;2022-12-07T08:07:57;2.90;99.90
74513;DHT22;62992;52.052;8.550;2022-12-07T08:10:41;3.00;99.90
74513;DHT22;62992;52.052;8.550;2022-12-07T08:13:25;3.00;99.90
74513;DHT22;62992;52.052;8.550;2022-12-07T08:16:10;3.00;99.90
74513;DHT22;62992;52.052;8.550;2022-12-07T08:18:55;3.00;99.90
74513;DHT22;62992;52.052;8.550;2022-12-07T08:21:40;3.10;99.90
74513;DHT22;62992;52.052;8.550;2022-12-07T08:24:24;3.20;99.90
74513;DHT22;62992;52.052;8.550;2022-12-07T08:27:09;3.30;99.90
74513;DHT22;62992;52.052;8.550;2022-12-07T08:29:53;3.40;99.90
74513;DHT22;62992;52.052;8.550;2022-12-07T08:32:37;3.60;99.90
74513;DHT22;62992;52.052;8.550;2022-12-07T08:35:21;3.60;99.90
74513;DHT22;62992;52.052;8.550;2022-12-07T08:38:05;3.50;99.90
74513;DHT22;62992;52.052;8.550;2022-12-07T08:40:57;3.50;99.90
74513;DHT22;62992;52.052;8.550;2022-12-07T08:43:41;3.50;99.90
74513;DHT22;62992;52.052;8.550;2022-12-07T08:46:32;3.60;99.90
74513;DHT22;62992;52.052;8.550;2022-12-07T08:49:27;3.70;99.90
74513;DHT22;62992;52.052;8.550;2022-12-07T08:52:11;3.80;99.90
74513;DHT22;62992;52.052;8.550;2022-12-07T08:54:57;3.80;99.90
74513;DHT22;62992;52.052;8.550;2022-12-07T08:57:41;3.60;99.90
74513;DHT22;62992;52.052;8.550;2022-12-07T09:00:27;3.50;99.90
74513;DHT22;62992;52.052;8.550;2022-12-07T09:03:11;3.50;99.90
74513;DHT22;62992;52.052;8.550;2022-12-07T09:05:55;3.60;99.90
74513;DHT22;62992;52.052;8.550;2022-12-07T09:08:43;3.60;99.90
74513;DHT22;62992;52.052;8.550;2022-12-07T09:11:29;3.70;99.90
74513;DHT22;62992;52.052;8.550;2022-12-07T09:14:13;4.00;99.90
74513;DHT22;62992;52.052;8.550;2022-12-07T09:17:12;4.10;99.90
74513;DHT22;62992;52.052;8.550;2022-12-07T09:19:56;4.40;99.90
74513;DHT22;62992;52.052;8.550;2022-12-07T09:22:40;4.50;99.90
74513;DHT22;62992;52.052;8.550;2022-12-07T09:25:24;4.60;99.90
74513;DHT22;62992;52.052;8.550;2022-12-07T09:28:08;4.60;99.90
74513;DHT22;62992;52.052;8.550;2022-12-07T09:30:52;4.60;99.90
74513;DHT22;62992;52.052;8.550;2022-12-07T09:33:37;4.50;99.90
74513;DHT22;62992;52.052;8.550;2022-12-07T09:36:21;4.50;99.90
74513;DHT22;62992;52.052;8.550;2022-12-07T09:39:05;4.40;99.90
74513;DHT22;62992;52.052;8.550;2022-12-07T09:41:49;4.30;99.90
74513;DHT22;62992;52.052;8.550;2022-12-07T09:44:35;4.30;99.90
74513;DHT22;62992;52.052;8.550;2022-12-07T09:47:19;4.30;99.90
74513;DHT22;62992;52.052;8.550;2022-12-07T09:50:07;4.20;99.90
74513;DHT22;62992;52.052;8.550;2022-12-07T09:53:06;4.20;99.90
74513;DHT22;62992;52.052;8.550;2022-12-07T09:55:51;4.10;99.90
74513;DHT22;62992;52.052;8.550;2022-12-07T09:58:36;4.20;99.90
74513;DHT22;62992;52.052;8.550;2022-12-07T10:01:22;4.20;99.90
74513;DHT22;62992;52.052;8.550;2022-12-07T10:04:21;4.30;99.90
74513;DHT22;62992;52.052;8.550;2022-12-07T10:07:05;4.30;99.90
74513;DHT22;62992;52.052;8.550;2022-12-07T10:09:50;4.30;99.90
74513;DHT22;62992;52.052;8.550;2022-12-07T10:15:47;4.40;99.90
74513;DHT22;62992;52.052;8.550;2022-12-07T10:21:23;4.50;99.90
74513;DHT22;62992;52.052;8.550;2022-12-07T10:26:56;4.70;99.90
74513;DHT22;62992;52.052;8.550;2022-12-07T10:29:50;4.80;99.90
74513;DHT22;62992;52.052;8.550;2022-12-07T10:32:36;4.80;99.90
74513;DHT22;62992;52.052;8.550;2022-12-07T10:38:16;4.80;99.90
74513;DHT22;62992;52.052;8.550;2022-12-07T10:41:06;4.70;99.90
74513;DHT22;62992;52.052;8.550;2022-12-07T10:43:55;4.70;99.90
74513;DHT22;62992;52.052;8.550;2022-12-07T10:49:45;4.60;99.90
74513;DHT22;62992;52.052;8.550;2022-12-07T11:00:04;4.70;99.90
74513;DHT22;62992;52.052;8.550;2022-12-07T11:02:49;4.80;99.90
74513;DHT22;62992;52.052;8.550;2022-12-07T11:05:44;4.80;99.90
74513;DHT22;62992;52.052;8.550;2022-12-07T11:12:10;4.90;99.90
74513;DHT22;62992;52.052;8.550;2022-12-07T11:27:47;5.00;99.90
74513;DHT22;62992;52.052;8.550;2022-12-07T11:36:53;5.10;99.90
74513;DHT22;62992;52.052;8.550;2022-12-07T11:39:47;5.20;99.90
74513;DHT22;62992;52.052;8.550;2022-12-07T11:42:38;5.20;99.90
74513;DHT22;62992;52.052;8.550;2022-12-07T11:45:27;5.30;99.90
74513;DHT22;62992;52.052;8.550;2022-12-07T11:48:22;5.60;99.90
74513;DHT22;62992;52.052;8.550;2022-12-07T11:51:11;5.70;99.90
74513;DHT22;62992;52.052;8.550;2022-12-07T11:54:01;5.60;99.90
74513;DHT22;62992;52.052;8.550;2022-12-07T11:56:49;5.40;99.90
74513;DHT22;62992;52.052;8.550;2022-12-07T11:59:40;5.30;99.90
74513;DHT22;62992;52.052;8.550;2022-12-07T12:03:30;5.40;99.90
74513;DHT22;62992;52.052;8.550;2022-12-07T12:05:48;5.50;99.90
74513;DHT22;62992;52.052;8.550;2022-12-07T12:08:39;5.50;99.90
74513;DHT22;62992;52.052;8.550;2022-12-07T12:17:47;5.60;99.90
74513;DHT22;62992;52.052;8.550;2022-12-07T12:20:51;5.50;99.90
74513;DHT22;62992;52.052;8.550;2022-12-07T12:23:46;5.60;99.90
74513;DHT22;62992;52.052;8.550;2022-12-07T12:26:35;5.60;99.90
74513;DHT22;62992;52.052;8.550;2022-12-07T12:29:26;5.50;99.90
74513;DHT22;62992;52.052;8.550;2022-12-07T12:32:31;5.60;99.90
74513;DHT22;62992;52.052;8.550;2022-12-07T12:35:36;5.70;99.90
74513;DHT22;62992;52.052;8.550;2022-12-07T12:38:33;5.70;99.90
74513;DHT22;62992;52.052;8.550;2022-12-07T12:50:48;5.40;99.90
74513;DHT22;62992;52.052;8.550;2022-12-07T12:53:32;5.40;99.90
74513;DHT22;62992;52.052;8.550;2022-12-07T12:56:38;5.30;99.90
74513;DHT22;62992;52.052;8.550;2022-12-07T12:59:33;5.30;99.90
74513;DHT22;62992;52.052;8.550;2022-12-07T13:02:37;5.40;99.90
74513;DHT22;62992;52.052;8.550;2022-12-07T13:05:28;5.40;99.90
74513;DHT22;62992;52.052;8.550;2022-12-07T13:08:21;5.40;99.90
74513;DHT22;62992;52.052;8.550;2022-12-07T13:11:31;5.40;99.90
74513;DHT22;62992;52.052;8.550;2022-12-07T13:14:56;5.30;99.90
74513;DHT22;62992;52.052;8.550;2022-12-07T13:20:45;5.20;99.90
74513;DHT22;62992;52.052;8.550;2022-12-07T13:26:41;5.20;99.90
74513;DHT22;62992;52.052;8.550;2022-12-07T13:29:26;5.00;99.90
74513;DHT22;62992;52.052;8.550;2022-12-07T13:32:25;4.90;99.90
74513;DHT22;62992;52.052;8.550;2022-12-07T13:35:29;4.90;99.90
74513;DHT22;62992;52.052;8.550;2022-12-07T13:38:29;4.80;99.90
74513;DHT22;62992;52.052;8.550;2022-12-07T13:41:17;4.70;99.90
74513;DHT22;62992;52.052;8.550;2022-12-07T13:44:15;4.70;99.90
74513;DHT22;62992;52.052;8.550;2022-12-07T13:49:59;4.80;99.90
74513;DHT22;62992;52.052;8.550;2022-12-07T13:52:44;4.80;99.90
74513;DHT22;62992;52.052;8.550;2022-12-07T13:55:29;4.90;99.90
74513;DHT22;62992;52.052;8.550;2022-12-07T13:58:14;4.90;99.90
74513;DHT22;62992;52.052;8.550;2022-12-07T14:00:59;5.00;99.90
74513;DHT22;62992;52.052;8.550;2022-12-07T14:03:43;5.00;99.90
74513;DHT22;62992;52.052;8.550;2022-12-07T14:06:27;4.90;99.90
74513;DHT22;62992;52.052;8.550;2022-12-07T14:09:17;4.80;99.90
74513;DHT22;62992;52.052;8.550;2022-12-07T14:12:06;4.80;99.90
74513;DHT22;62992;52.052;8.550;2022-12-07T14:14:50;4.80;99.90
74513;DHT22;62992;52.052;8.550;2022-12-07T14:17:35;4.80;99.90
74513;DHT22;62992;52.052;8.550;2022-12-07T14:20:39;4.70;99.90
74513;DHT22;62992;52.052;8.550;2022-12-07T14:23:25;4.70;99.90
74513;DHT22;62992;52.052;8.550;2022-12-07T14:26:24;4.60;99.90
74513;DHT22;62992;52.052;8.550;2022-12-07T14:32:27;4.60;99.90
74513;DHT22;62992;52.052;8.550;2022-12-07T14:35:16;4.60;99.90
74513;DHT22;62992;52.052;8.550;2022-12-07T14:38:01;4.60;99.90
74513;DHT22;62992;52.052;8.550;2022-12-07T14:40:46;4.50;99.90
74513;DHT22;62992;52.052;8.550;2022-12-07T14:43:29;4.40;99.90
74513;DHT22;62992;52.052;8.550;2022-12-07T14:46:14;4.40;99.90
74513;DHT22;62992;52.052;8.550;2022-12-07T14:48:58;4.30;99.90
74513;DHT22;62992;52.052;8.550;2022-12-07T14:51:44;4.30;99.90
74513;DHT22;62992;52.052;8.550;2022-12-07T14:54:31;4.30;99.90
74513;DHT22;62992;52.052;8.550;2022-12-07T14:57:16;4.20;99.90
74513;DHT22;62992;52.052;8.550;2022-12-07T15:00:00;4.20;99.90
74513;DHT22;62992;52.052;8.550;2022-12-07T15:02:46;4.10;99.90
74513;DHT22;62992;52.052;8.550;2022-12-07T15:05:30;4.10;99.90
74513;DHT22;62992;52.052;8.550;2022-12-07T15:08:14;4.10;99.90
74513;DHT22;62992;52.052;8.550;2022-12-07T15:10:58;4.20;99.90
74513;DHT22;62992;52.052;8.550;2022-12-07T15:13:43;4.20;99.90
74513;DHT22;62992;52.052;8.550;2022-12-07T15:16:45;4.20;99.90
74513;DHT22;62992;52.052;8.550;2022-12-07T15:19:29;4.30;99.90
74513;DHT22;62992;52.052;8.550;2022-12-07T15:22:13;4.30;99.90
74513;DHT22;62992;52.052;8.550;2022-12-07T15:24:58;4.30;99.90
74513;DHT22;62992;52.052;8.550;2022-12-07T15:27:42;4.30;99.90
74513;DHT22;62992;52.052;8.550;2022-12-07T15:30:26;4.30;99.90
74513;DHT22;62992;52.052;8.550;2022-12-07T15:33:11;4.30;99.90
74513;DHT22;62992;52.052;8.550;2022-12-07T15:35:55;4.40;99.90
74513;DHT22;62992;52.052;8.550;2022-12-07T15:38:40;4.40;99.90
74513;DHT22;62992;52.052;8.550;2022-12-07T15:41:24;4.50;99.90
74513;DHT22;62992;52.052;8.550;2022-12-07T15:44:11;4.40;99.90
74513;DHT22;62992;52.052;8.550;2022-12-07T15:47:14;4.40;99.90
74513;DHT22;62992;52.052;8.550;2022-12-07T15:49:58;4.40;99.90
74513;DHT22;62992;52.052;8.550;2022-12-07T15:52:42;4.30;99.90
74513;DHT22;62992;52.052;8.550;2022-12-07T15:55:27;4.40;99.90
74513;DHT22;62992;52.052;8.550;2022-12-07T15:58:11;4.40;99.90
74513;DHT22;62992;52.052;8.550;2022-12-07T16:00:55;4.40;99.90
74513;DHT22;62992;52.052;8.550;2022-12-07T16:03:39;4.30;99.90
74513;DHT22;62992;52.052;8.550;2022-12-07T16:06:23;4.30;99.90
74513;DHT22;62992;52.052;8.550;2022-12-07T16:09:07;3.70;99.90
74513;DHT22;62992;52.052;8.550;2022-12-07T16:11:51;3.40;99.90
74513;DHT22;62992;52.052;8.550;2022-12-07T16:14:37;3.20;99.90
74513;DHT22;62992;52.052;8.550;2022-12-07T16:17:21;3.10;99.90
74513;DHT22;62992;52.052;8.550;2022-12-07T16:20:06;3.10;99.90
74513;DHT22;62992;52.052;8.550;2022-12-07T16:22:53;3.00;99.90
74513;DHT22;62992;52.052;8.550;2022-12-07T16:25:38;2.90;99.90
74513;DHT22;62992;52.052;8.550;2022-12-07T16:28:22;2.80;99.90
74513;DHT22;62992;52.052;8.550;2022-12-07T16:31:09;2.80;99.90
74513;DHT22;62992;52.052;8.550;2022-12-07T16:33:56;2.80;99.90
74513;DHT22;62992;52.052;8.550;2022-12-07T16:36:40;2.70;99.90
74513;DHT22;62992;52.052;8.550;2022-12-07T16:39:25;2.60;99.90
74513;DHT22;62992;52.052;8.550;2022-12-07T16:42:09;2.60;99.90
74513;DHT22;62992;52.052;8.550;2022-12-07T16:44:53;2.60;99.90
74513;DHT22;62992;52.052;8.550;2022-12-07T16:47:37;2.50;99.90
74513;DHT22;62992;52.052;8.550;2022-12-07T16:50:22;2.50;99.90
74513;DHT22;62992;52.052;8.550;2022-12-07T16:53:06;2.50;99.90
74513;DHT22;62992;52.052;8.550;2022-12-07T16:55:50;2.50;99.90
74513;DHT22;62992;52.052;8.550;2022-12-07T16:58:34;2.50;99.90
74513;DHT22;62992;52.052;8.550;2022-12-07T17:01:20;2.60;99.90
74513;DHT22;62992;52.052;8.550;2022-12-07T17:04:08;2.70;99.90
74513;DHT22;62992;52.052;8.550;2022-12-07T17:06:53;2.70;99.90
74513;DHT22;62992;52.052;8.550;2022-12-07T17:09:37;2.80;99.90
74513;DHT22;62992;52.052;8.550;2022-12-07T17:12:21;3.00;99.90
74513;DHT22;62992;52.052;8.550;2022-12-07T17:15:05;3.00;99.90
74513;DHT22;62992;52.052;8.550;2022-12-07T17:18:02;3.10;99.90
74513;DHT22;62992;52.052;8.550;2022-12-07T17:20:46;3.10;99.90
74513;DHT22;62992;52.052;8.550;2022-12-07T17:23:30;3.20;99.90
74513;DHT22;62992;52.052;8.550;2022-12-07T17:26:21;3.20;99.90
74513;DHT22;62992;52.052;8.550;2022-12-07T17:29:07;3.20;99.90
74513;DHT22;62992;52.052;8.550;2022-12-07T17:31:54;3.20;99.90
74513;DHT22;62992;52.052;8.550;2022-12-07T17:34:38;3.20;99.90
74513;DHT22;62992;52.052;8.550;2022-12-07T17:37:23;3.30;99.90
74513;DHT22;62992;52.052;8.550;2022-12-07T17:40:07;3.30;99.90
74513;DHT22;62992;52.052;8.550;2022-12-07T17:42:51;3.30;99.90
74513;DHT22;62992;52.052;8.550;2022-12-07T17:45:36;3.30;99.90
74513;DHT22;62992;52.052;8.550;2022-12-07T17:48:21;3.30;99.90
74513;DHT22;62992;52.052;8.550;2022-12-07T17:51:05;3.30;99.90
74513;DHT22;62992;52.052;8.550;2022-12-07T17:54:09;3.30;99.90
74513;DHT22;62992;52.052;8.550;2022-12-07T17:56:53;3.40;99.90
74513;DHT22;62992;52.052;8.550;2022-12-07T17:59:37;3.40;99.90
74513;DHT22;62992;52.052;8.550;2022-12-07T18:02:21;3.40;99.90
74513;DHT22;62992;52.052;8.550;2022-12-07T18:05:06;3.50;99.90
74513;DHT22;62992;52.052;8.550;2022-12-07T18:07:50;3.50;99.90
74513;DHT22;62992;52.052;8.550;2022-12-07T18:10:35;3.50;99.90
74513;DHT22;62992;52.052;8.550;2022-12-07T18:13:19;3.40;99.90
74513;DHT22;62992;52.052;8.550;2022-12-07T18:16:22;3.40;99.90
74513;DHT22;62992;52.052;8.550;2022-12-07T18:19:11;3.40;99.90
74513;DHT22;62992;52.052;8.550;2022-12-07T18:21:57;3.40;99.90
74513;DHT22;62992;52.052;8.550;2022-12-07T18:24:40;3.40;99.90
74513;DHT22;62992;52.052;8.550;2022-12-07T18:27:25;3.30;99.90
74513;DHT22;62992;52.052;8.550;2022-12-07T18:30:09;3.30;99.90
74513;DHT22;62992;52.052;8.550;2022-12-07T18:32:53;3.20;99.90
74513;DHT22;62992;52.052;8.550;2022-12-07T18:35:38;3.30;99.90
74513;DHT22;62992;52.052;8.550;2022-12-07T18:38:22;3.30;99.90
74513;DHT22;62992;52.052;8.550;2022-12-07T18:41:07;3.20;99.90
74513;DHT22;62992;52.052;8.550;2022-12-07T18:43:51;3.20;99.90
74513;DHT22;62992;52.052;8.550;2022-12-07T18:46:36;3.30;99.90
74513;DHT22;62992;52.052;8.550;2022-12-07T18:49:20;3.20;99.90
74513;DHT22;62992;52.052;8.550;2022-12-07T18:52:04;3.30;99.90
74513;DHT22;62992;52.052;8.550;2022-12-07T18:54:49;3.30;99.90
74513;DHT22;62992;52.052;8.550;2022-12-07T18:57:33;3.30;99.90
74513;DHT22;62992;52.052;8.550;2022-12-07T19:00:17;3.30;99.90
74513;DHT22;62992;52.052;8.550;2022-12-07T19:03:01;3.40;99.90
74513;DHT22;62992;52.052;8.550;2022-12-07T19:05:45;3.30;99.90
74513;DHT22;62992;52.052;8.550;2022-12-07T19:08:29;3.30;99.90
74513;DHT22;62992;52.052;8.550;2022-12-07T19:11:18;3.40;99.90
74513;DHT22;62992;52.052;8.550;2022-12-07T19:14:33;3.30;99.90
74513;DHT22;62992;52.052;8.550;2022-12-07T19:17:17;3.40;99.90
74513;DHT22;62992;52.052;8.550;2022-12-07T19:20:03;3.40;99.90
74513;DHT22;62992;52.052;8.550;2022-12-07T19:22:47;3.30;99.90
74513;DHT22;62992;52.052;8.550;2022-12-07T19:25:31;3.40;99.90
74513;DHT22;62992;52.052;8.550;2022-12-07T19:28:15;3.40;99.90
74513;DHT22;62992;52.052;8.550;2022-12-07T19:30:59;3.40;99.90
74513;DHT22;62992;52.052;8.550;2022-12-07T19:33:43;3.50;99.90